sensor_id;sensor_type;location;lat;lon;timestamp;temperature;humidity
73572;DHT22;61854;48.510;-2.770;2023-01-15T00:00:03;5.90;99.00
73572;DHT22;61854;48.510;-2.770;2023-01-15T00:02:29;5.90;99.20
73572;DHT22;61854;48.510;-2.770;2023-01-15T00:04:55;5.90;99.20
73572;DHT22;61854;48.510;-2.770;2023-01-15T00:07:20;5.90;99.10
73572;DHT22;61854;48.510;-2.770;2023-01-15T00:09:46;5.90;98.90
73572;DHT22;61854;48.510;-2.770;2023-01-15T00:12:11;5.90;98.90
73572;DHT22;61854;48.510;-2.770;2023-01-15T00:14:37;5.90;98.80
73572;DHT22;61854;48.510;-2.770;2023-01-15T00:17:02;6.00;99.00
73572;DHT22;61854;48.510;-2.770;2023-01-15T00:19:28;6.00;98.80
73572;DHT22;61854;48.510;-2.770;2023-01-15T00:21:53;6.00;98.00
73572;DHT22;61854;48.510;-2.770;2023-01-15T00:24:19;6.10;97.80
73572;DHT22;61854;48.510;-2.770;2023-01-15T00:27:03;6.10;98.30
73572;DHT22;61854;48.510;-2.770;2023-01-15T00:29:47;6.10;98.50
73572;DHT22;61854;48.510;-2.770;2023-01-15T00:32:13;6.00;98.80
73572;DHT22;61854;48.510;-2.770;2023-01-15T00:34:38;6.10;98.80
73572;DHT22;61854;48.510;-2.770;2023-01-15T00:37:04;6.10;98.70
73572;DHT22;61854;48.510;-2.770;2023-01-15T00:39:29;6.00;98.50
73572;DHT22;61854;48.510;-2.770;2023-01-15T00:41:55;6.10;98.60
73572;DHT22;61854;48.510;-2.770;2023-01-15T00:44:22;6.10;98.50
73572;DHT22;61854;48.510;-2.770;2023-01-15T00:46:48;6.10;98.40
73572;DHT22;61854;48.510;-2.770;2023-01-15T00:49:13;6.10;98.40
73572;DHT22;61854;48.510;-2.770;2023-01-15T00:51:39;6.10;98.50
73572;DHT22;61854;48.510;-2.770;2023-01-15T00:54:05;6.20;98.00
73572;DHT22;61854;48.510;-2.770;2023-01-15T00:56:30;6.10;98.00
73572;DHT22;61854;48.510;-2.770;2023-01-15T00:58:56;6.20;97.50
73572;DHT22;61854;48.510;-2.770;2023-01-15T01:01:22;6.30;97.40
73572;DHT22;61854;48.510;-2.770;2023-01-15T01:03:47;6.30;96.80
73572;DHT22;61854;48.510;-2.770;2023-01-15T01:06:16;6.30;96.70
73572;DHT22;61854;48.510;-2.770;2023-01-15T01:08:42;6.30;96.80
73572;DHT22;61854;48.510;-2.770;2023-01-15T01:11:10;6.30;96.40
73572;DHT22;61854;48.510;-2.770;2023-01-15T01:13:37;6.30;96.30
73572;DHT22;61854;48.510;-2.770;2023-01-15T01:16:03;6.40;96.30
73572;DHT22;61854;48.510;-2.770;2023-01-15T01:18:29;6.40;96.00
73572;DHT22;61854;48.510;-2.770;2023-01-15T01:20:55;6.40;96.10
73572;DHT22;61854;48.510;-2.770;2023-01-15T01:23:21;6.40;95.90
73572;DHT22;61854;48.510;-2.770;2023-01-15T01:25:47;6.40;95.80
73572;DHT22;61854;48.510;-2.770;2023-01-15T01:28:12;6.40;96.00
73572;DHT22;61854;48.510;-2.770;2023-01-15T01:30:38;6.50;95.60
73572;DHT22;61854;48.510;-2.770;2023-01-15T01:33:04;6.40;95.50
73572;DHT22;61854;48.510;-2.770;2023-01-15T01:35:29;6.40;95.80
73572;DHT22;61854;48.510;-2.770;2023-01-15T01:37:55;6.40;95.70
73572;DHT22;61854;48.510;-2.770;2023-01-15T01:40:20;6.40;95.50
73572;DHT22;61854;48.510;-2.770;2023-01-15T01:42:46;6.40;95.80
73572;DHT22;61854;48.510;-2.770;2023-01-15T01:45:16;6.40;95.50
73572;DHT22;61854;48.510;-2.770;2023-01-15T01:47:42;6.40;95.50
73572;DHT22;61854;48.510;-2.770;2023-01-15T01:50:09;6.50;95.60
73572;DHT22;61854;48.510;-2.770;2023-01-15T01:52:38;6.50;95.10
73572;DHT22;61854;48.510;-2.770;2023-01-15T01:55:05;6.50;95.00
73572;DHT22;61854;48.510;-2.770;2023-01-15T01:57:31;6.60;95.30
73572;DHT22;61854;48.510;-2.770;2023-01-15T01:59:57;6.40;95.30
73572;DHT22;61854;48.510;-2.770;2023-01-15T02:02:23;6.20;95.40
73572;DHT22;61854;48.510;-2.770;2023-01-15T02:04:49;6.10;95.90
73572;DHT22;61854;48.510;-2.770;2023-01-15T02:07:14;6.00;96.10
73572;DHT22;61854;48.510;-2.770;2023-01-15T02:09:40;5.90;96.30
73572;DHT22;61854;48.510;-2.770;2023-01-15T02:12:16;5.90;96.40
73572;DHT22;61854;48.510;-2.770;2023-01-15T02:14:55;5.90;96.20
73572;DHT22;61854;48.510;-2.770;2023-01-15T02:17:25;5.90;95.60
73572;DHT22;61854;48.510;-2.770;2023-01-15T02:27:31;5.70;93.20
73572;DHT22;61854;48.510;-2.770;2023-01-15T02:32:36;5.70;93.10
73572;DHT22;61854;48.510;-2.770;2023-01-15T02:35:05;5.60;93.10
73572;DHT22;61854;48.510;-2.770;2023-01-15T02:37:32;5.70;93.10
73572;DHT22;61854;48.510;-2.770;2023-01-15T02:39:59;5.70;93.60
73572;DHT22;61854;48.510;-2.770;2023-01-15T02:42:26;5.70;93.80
73572;DHT22;61854;48.510;-2.770;2023-01-15T02:44:52;5.70;94.10
73572;DHT22;61854;48.510;-2.770;2023-01-15T02:47:21;5.70;94.40
73572;DHT22;61854;48.510;-2.770;2023-01-15T02:49:48;5.60;95.10
73572;DHT22;61854;48.510;-2.770;2023-01-15T02:52:24;5.60;95.20
73572;DHT22;61854;48.510;-2.770;2023-01-15T02:55:02;5.50;95.40
73572;DHT22;61854;48.510;-2.770;2023-01-15T02:57:29;5.50;95.40
73572;DHT22;61854;48.510;-2.770;2023-01-15T02:59:57;5.50;95.80
73572;DHT22;61854;48.510;-2.770;2023-01-15T03:02:27;5.40;95.90
73572;DHT22;61854;48.510;-2.770;2023-01-15T03:04:57;5.40;95.90
73572;DHT22;61854;48.510;-2.770;2023-01-15T03:07:25;5.40;95.90
73572;DHT22;61854;48.510;-2.770;2023-01-15T03:09:53;5.40;96.00
73572;DHT22;61854;48.510;-2.770;2023-01-15T03:12:29;5.40;96.00
73572;DHT22;61854;48.510;-2.770;2023-01-15T03:17:32;5.40;95.90
73572;DHT22;61854;48.510;-2.770;2023-01-15T03:20:41;5.40;95.80
73572;DHT22;61854;48.510;-2.770;2023-01-15T03:22:48;5.50;95.40
73572;DHT22;61854;48.510;-2.770;2023-01-15T03:25:20;5.60;94.80
73572;DHT22;61854;48.510;-2.770;2023-01-15T03:27:46;5.60;94.60
73572;DHT22;61854;48.510;-2.770;2023-01-15T03:30:16;5.70;94.10
73572;DHT22;61854;48.510;-2.770;2023-01-15T03:32:46;5.70;94.20
73572;DHT22;61854;48.510;-2.770;2023-01-15T03:37:55;5.80;93.70
73572;DHT22;61854;48.510;-2.770;2023-01-15T03:40:21;5.80;93.40
73572;DHT22;61854;48.510;-2.770;2023-01-15T03:42:49;5.80;93.60
73572;DHT22;61854;48.510;-2.770;2023-01-15T03:45:36;5.80;93.60
73572;DHT22;61854;48.510;-2.770;2023-01-15T03:50:55;5.90;93.30
73572;DHT22;61854;48.510;-2.770;2023-01-15T03:53:25;5.90;93.00
73572;DHT22;61854;48.510;-2.770;2023-01-15T03:59:08;6.00;92.70
73572;DHT22;61854;48.510;-2.770;2023-01-15T04:01:11;6.00;92.70
73572;DHT22;61854;48.510;-2.770;2023-01-15T04:03:39;6.00;92.80
73572;DHT22;61854;48.510;-2.770;2023-01-15T04:06:04;6.00;92.50
73572;DHT22;61854;48.510;-2.770;2023-01-15T04:08:34;6.00;92.70
73572;DHT22;61854;48.510;-2.770;2023-01-15T04:11:01;6.00;92.70
73572;DHT22;61854;48.510;-2.770;2023-01-15T04:13:27;6.00;92.60
73572;DHT22;61854;48.510;-2.770;2023-01-15T04:15:53;6.00;92.70
73572;DHT22;61854;48.510;-2.770;2023-01-15T04:18:19;6.00;92.80
73572;DHT22;61854;48.510;-2.770;2023-01-15T04:20:44;6.00;92.20
73572;DHT22;61854;48.510;-2.770;2023-01-15T04:23:10;6.00;92.20
73572;DHT22;61854;48.510;-2.770;2023-01-15T04:25:35;6.00;92.30
73572;DHT22;61854;48.510;-2.770;2023-01-15T04:28:01;5.90;92.30
73572;DHT22;61854;48.510;-2.770;2023-01-15T04:30:26;5.90;92.20
73572;DHT22;61854;48.510;-2.770;2023-01-15T04:32:52;5.90;92.30
73572;DHT22;61854;48.510;-2.770;2023-01-15T04:35:18;5.80;92.30
73572;DHT22;61854;48.510;-2.770;2023-01-15T04:37:44;5.90;92.20
73572;DHT22;61854;48.510;-2.770;2023-01-15T04:40:10;5.80;92.40
73572;DHT22;61854;48.510;-2.770;2023-01-15T04:42:55;5.90;92.50
73572;DHT22;61854;48.510;-2.770;2023-01-15T04:45:39;5.90;92.10
73572;DHT22;61854;48.510;-2.770;2023-01-15T04:48:05;6.00;91.90
73572;DHT22;61854;48.510;-2.770;2023-01-15T04:50:31;6.10;91.60
73572;DHT22;61854;48.510;-2.770;2023-01-15T04:52:56;6.20;91.70
73572;DHT22;61854;48.510;-2.770;2023-01-15T04:55:22;6.20;91.40
73572;DHT22;61854;48.510;-2.770;2023-01-15T04:57:50;6.20;91.50
73572;DHT22;61854;48.510;-2.770;2023-01-15T05:00:16;6.30;91.40
73572;DHT22;61854;48.510;-2.770;2023-01-15T05:02:41;6.30;91.20
73572;DHT22;61854;48.510;-2.770;2023-01-15T05:05:07;6.30;91.50
73572;DHT22;61854;48.510;-2.770;2023-01-15T05:07:32;6.30;91.80
73572;DHT22;61854;48.510;-2.770;2023-01-15T05:09:58;6.20;92.00
73572;DHT22;61854;48.510;-2.770;2023-01-15T05:12:23;6.20;92.10
73572;DHT22;61854;48.510;-2.770;2023-01-15T05:14:50;6.30;91.90
73572;DHT22;61854;48.510;-2.770;2023-01-15T05:17:16;6.30;91.80
73572;DHT22;61854;48.510;-2.770;2023-01-15T05:19:41;6.30;91.80
73572;DHT22;61854;48.510;-2.770;2023-01-15T05:22:07;6.30;92.20
73572;DHT22;61854;48.510;-2.770;2023-01-15T05:24:33;6.20;92.20
73572;DHT22;61854;48.510;-2.770;2023-01-15T05:26:58;6.20;92.50
73572;DHT22;61854;48.510;-2.770;2023-01-15T05:29:24;6.20;92.40
73572;DHT22;61854;48.510;-2.770;2023-01-15T05:31:49;6.30;92.20
73572;DHT22;61854;48.510;-2.770;2023-01-15T05:34:15;6.30;92.10
73572;DHT22;61854;48.510;-2.770;2023-01-15T05:36:40;6.40;92.00
73572;DHT22;61854;48.510;-2.770;2023-01-15T05:39:06;6.30;92.00
73572;DHT22;61854;48.510;-2.770;2023-01-15T05:41:32;6.40;91.70
73572;DHT22;61854;48.510;-2.770;2023-01-15T05:44:17;6.40;91.60
73572;DHT22;61854;48.510;-2.770;2023-01-15T05:46:43;6.50;91.30
73572;DHT22;61854;48.510;-2.770;2023-01-15T05:49:10;6.50;91.30
73572;DHT22;61854;48.510;-2.770;2023-01-15T05:51:36;6.50;91.30
73572;DHT22;61854;48.510;-2.770;2023-01-15T05:54:02;6.50;91.30
73572;DHT22;61854;48.510;-2.770;2023-01-15T05:56:28;6.50;91.50
73572;DHT22;61854;48.510;-2.770;2023-01-15T05:58:53;6.60;91.30
73572;DHT22;61854;48.510;-2.770;2023-01-15T06:01:19;6.70;91.20
73572;DHT22;61854;48.510;-2.770;2023-01-15T06:03:45;6.80;91.10
73572;DHT22;61854;48.510;-2.770;2023-01-15T06:06:13;6.80;91.40
73572;DHT22;61854;48.510;-2.770;2023-01-15T06:08:39;6.80;91.70
73572;DHT22;61854;48.510;-2.770;2023-01-15T06:11:04;6.80;91.60
73572;DHT22;61854;48.510;-2.770;2023-01-15T06:13:31;6.80;92.00
73572;DHT22;61854;48.510;-2.770;2023-01-15T06:15:58;6.70;92.00
73572;DHT22;61854;48.510;-2.770;2023-01-15T06:18:23;6.50;92.30
73572;DHT22;61854;48.510;-2.770;2023-01-15T06:20:49;6.50;92.50
73572;DHT22;61854;48.510;-2.770;2023-01-15T06:23:15;6.50;92.50
73572;DHT22;61854;48.510;-2.770;2023-01-15T06:25:41;6.50;92.20
73572;DHT22;61854;48.510;-2.770;2023-01-15T06:28:07;6.50;92.30
73572;DHT22;61854;48.510;-2.770;2023-01-15T06:30:32;6.50;92.30
73572;DHT22;61854;48.510;-2.770;2023-01-15T06:32:58;6.60;92.00
73572;DHT22;61854;48.510;-2.770;2023-01-15T06:35:24;6.60;92.00
73572;DHT22;61854;48.510;-2.770;2023-01-15T06:37:50;6.60;92.00
73572;DHT22;61854;48.510;-2.770;2023-01-15T06:40:15;6.70;91.90
73572;DHT22;61854;48.510;-2.770;2023-01-15T06:42:41;6.70;92.10
73572;DHT22;61854;48.510;-2.770;2023-01-15T06:45:25;6.70;91.90
73572;DHT22;61854;48.510;-2.770;2023-01-15T06:48:09;6.70;92.30
73572;DHT22;61854;48.510;-2.770;2023-01-15T06:50:34;6.70;92.60
73572;DHT22;61854;48.510;-2.770;2023-01-15T06:53:00;6.70;92.20
73572;DHT22;61854;48.510;-2.770;2023-01-15T06:55:25;6.80;93.20
73572;DHT22;61854;48.510;-2.770;2023-01-15T06:57:51;6.60;93.60
73572;DHT22;61854;48.510;-2.770;2023-01-15T07:00:16;6.50;94.00
73572;DHT22;61854;48.510;-2.770;2023-01-15T07:02:42;6.40;94.00
73572;DHT22;61854;48.510;-2.770;2023-01-15T07:05:08;6.30;94.00
73572;DHT22;61854;48.510;-2.770;2023-01-15T07:07:33;6.30;94.00
73572;DHT22;61854;48.510;-2.770;2023-01-15T07:09:59;6.30;93.90
73572;DHT22;61854;48.510;-2.770;2023-01-15T07:12:25;6.20;93.90
73572;DHT22;61854;48.510;-2.770;2023-01-15T07:14:50;6.30;93.40
73572;DHT22;61854;48.510;-2.770;2023-01-15T07:17:16;6.40;93.20
73572;DHT22;61854;48.510;-2.770;2023-01-15T07:19:41;6.40;93.00
73572;DHT22;61854;48.510;-2.770;2023-01-15T07:22:07;6.30;93.00
73572;DHT22;61854;48.510;-2.770;2023-01-15T07:24:33;6.30;93.00
73572;DHT22;61854;48.510;-2.770;2023-01-15T07:26:59;6.30;93.00
73572;DHT22;61854;48.510;-2.770;2023-01-15T07:29:24;6.30;92.60
73572;DHT22;61854;48.510;-2.770;2023-01-15T07:31:50;6.30;92.40
73572;DHT22;61854;48.510;-2.770;2023-01-15T07:34:16;6.40;92.60
73572;DHT22;61854;48.510;-2.770;2023-01-15T07:36:41;6.40;92.50
73572;DHT22;61854;48.510;-2.770;2023-01-15T07:39:07;6.40;92.30
73572;DHT22;61854;48.510;-2.770;2023-01-15T07:41:33;6.50;92.30
73572;DHT22;61854;48.510;-2.770;2023-01-15T07:44:31;6.60;92.30
73572;DHT22;61854;48.510;-2.770;2023-01-15T07:47:17;6.60;92.20
73572;DHT22;61854;48.510;-2.770;2023-01-15T07:50:02;6.60;93.20
73572;DHT22;61854;48.510;-2.770;2023-01-15T07:52:28;6.40;95.10
73572;DHT22;61854;48.510;-2.770;2023-01-15T07:54:53;6.30;95.90
73572;DHT22;61854;48.510;-2.770;2023-01-15T07:57:19;6.20;96.60
73572;DHT22;61854;48.510;-2.770;2023-01-15T07:59:46;6.20;96.90
73572;DHT22;61854;48.510;-2.770;2023-01-15T08:02:11;6.10;97.00
73572;DHT22;61854;48.510;-2.770;2023-01-15T08:04:37;6.10;96.90
73572;DHT22;61854;48.510;-2.770;2023-01-15T08:07:03;6.20;96.60
73572;DHT22;61854;48.510;-2.770;2023-01-15T08:09:29;6.20;96.30
73572;DHT22;61854;48.510;-2.770;2023-01-15T08:11:54;6.20;95.30
73572;DHT22;61854;48.510;-2.770;2023-01-15T08:14:38;6.20;95.50
73572;DHT22;61854;48.510;-2.770;2023-01-15T08:17:22;6.10;95.40
73572;DHT22;61854;48.510;-2.770;2023-01-15T08:19:48;6.10;95.30
73572;DHT22;61854;48.510;-2.770;2023-01-15T08:22:13;6.10;95.20
73572;DHT22;61854;48.510;-2.770;2023-01-15T08:24:39;6.20;95.30
73572;DHT22;61854;48.510;-2.770;2023-01-15T08:27:04;6.30;94.90
73572;DHT22;61854;48.510;-2.770;2023-01-15T08:29:30;6.40;95.30
73572;DHT22;61854;48.510;-2.770;2023-01-15T08:31:55;6.50;94.80
73572;DHT22;61854;48.510;-2.770;2023-01-15T08:34:21;6.60;94.80
73572;DHT22;61854;48.510;-2.770;2023-01-15T08:36:46;6.60;94.20
73572;DHT22;61854;48.510;-2.770;2023-01-15T08:39:14;6.70;94.00
73572;DHT22;61854;48.510;-2.770;2023-01-15T08:41:39;6.70;93.90
73572;DHT22;61854;48.510;-2.770;2023-01-15T08:44:05;6.70;94.10
73572;DHT22;61854;48.510;-2.770;2023-01-15T08:46:31;6.70;94.10
73572;DHT22;61854;48.510;-2.770;2023-01-15T08:48:56;6.70;94.60
73572;DHT22;61854;48.510;-2.770;2023-01-15T08:51:22;6.70;94.20
73572;DHT22;61854;48.510;-2.770;2023-01-15T08:53:47;6.70;94.40
73572;DHT22;61854;48.510;-2.770;2023-01-15T08:56:13;6.70;94.20
73572;DHT22;61854;48.510;-2.770;2023-01-15T08:58:40;6.70;94.30
73572;DHT22;61854;48.510;-2.770;2023-01-15T09:01:09;6.70;94.00
73572;DHT22;61854;48.510;-2.770;2023-01-15T09:03:34;6.70;93.70
73572;DHT22;61854;48.510;-2.770;2023-01-15T09:06:00;6.70;93.60
73572;DHT22;61854;48.510;-2.770;2023-01-15T09:08:26;6.70;93.30
73572;DHT22;61854;48.510;-2.770;2023-01-15T09:10:59;6.70;93.20
73572;DHT22;61854;48.510;-2.770;2023-01-15T09:13:25;6.80;92.50
73572;DHT22;61854;48.510;-2.770;2023-01-15T09:15:50;6.80;92.00
73572;DHT22;61854;48.510;-2.770;2023-01-15T09:18:16;6.90;92.30
73572;DHT22;61854;48.510;-2.770;2023-01-15T09:20:44;6.90;92.40
73572;DHT22;61854;48.510;-2.770;2023-01-15T09:23:09;6.80;92.60
73572;DHT22;61854;48.510;-2.770;2023-01-15T09:25:35;6.80;92.60
73572;DHT22;61854;48.510;-2.770;2023-01-15T09:28:00;6.90;92.50
73572;DHT22;61854;48.510;-2.770;2023-01-15T09:30:26;6.90;92.70
73572;DHT22;61854;48.510;-2.770;2023-01-15T09:32:51;6.90;92.60
73572;DHT22;61854;48.510;-2.770;2023-01-15T09:35:17;6.90;92.90
73572;DHT22;61854;48.510;-2.770;2023-01-15T09:37:42;6.90;92.90
73572;DHT22;61854;48.510;-2.770;2023-01-15T09:40:17;6.90;93.10
73572;DHT22;61854;48.510;-2.770;2023-01-15T09:42:48;7.00;92.70
73572;DHT22;61854;48.510;-2.770;2023-01-15T09:45:21;7.00;92.90
73572;DHT22;61854;48.510;-2.770;2023-01-15T09:55:21;7.20;92.00
73572;DHT22;61854;48.510;-2.770;2023-01-15T09:57:49;7.20;91.90
73572;DHT22;61854;48.510;-2.770;2023-01-15T10:00:23;7.20;91.60
73572;DHT22;61854;48.510;-2.770;2023-01-15T10:02:52;7.10;91.50
73572;DHT22;61854;48.510;-2.770;2023-01-15T10:05:33;7.20;91.60
73572;DHT22;61854;48.510;-2.770;2023-01-15T10:08:02;7.20;91.60
73572;DHT22;61854;48.510;-2.770;2023-01-15T10:10:29;7.30;91.10
73572;DHT22;61854;48.510;-2.770;2023-01-15T10:13:10;7.30;91.10
73572;DHT22;61854;48.510;-2.770;2023-01-15T10:15:43;7.40;91.00
73572;DHT22;61854;48.510;-2.770;2023-01-15T10:18:27;7.50;90.70
73572;DHT22;61854;48.510;-2.770;2023-01-15T10:23:31;7.60;91.00
73572;DHT22;61854;48.510;-2.770;2023-01-15T10:28:27;7.50;90.70
73572;DHT22;61854;48.510;-2.770;2023-01-15T10:30:54;7.40;91.00
73572;DHT22;61854;48.510;-2.770;2023-01-15T10:35:58;7.40;91.50
73572;DHT22;61854;48.510;-2.770;2023-01-15T10:38:27;7.40;91.80
73572;DHT22;61854;48.510;-2.770;2023-01-15T10:41:09;7.40;92.10
73572;DHT22;61854;48.510;-2.770;2023-01-15T10:46:27;7.50;91.70
73572;DHT22;61854;48.510;-2.770;2023-01-15T10:49:18;7.60;92.10
73572;DHT22;61854;48.510;-2.770;2023-01-15T10:54:28;7.70;91.90
73572;DHT22;61854;48.510;-2.770;2023-01-15T10:57:03;7.80;91.80
73572;DHT22;61854;48.510;-2.770;2023-01-15T11:02:15;7.80;91.90
73572;DHT22;61854;48.510;-2.770;2023-01-15T11:04:42;7.90;91.60
73572;DHT22;61854;48.510;-2.770;2023-01-15T11:07:08;8.00;91.20
73572;DHT22;61854;48.510;-2.770;2023-01-15T11:09:35;8.00;90.90
73572;DHT22;61854;48.510;-2.770;2023-01-15T11:12:11;8.10;90.10
73572;DHT22;61854;48.510;-2.770;2023-01-15T11:14:42;8.00;90.00
73572;DHT22;61854;48.510;-2.770;2023-01-15T11:17:27;8.10;89.40
73572;DHT22;61854;48.510;-2.770;2023-01-15T11:22:42;8.20;88.50
73572;DHT22;61854;48.510;-2.770;2023-01-15T11:25:08;8.20;88.00
73572;DHT22;61854;48.510;-2.770;2023-01-15T11:27:35;8.30;88.10
73572;DHT22;61854;48.510;-2.770;2023-01-15T11:30:03;8.30;87.70
73572;DHT22;61854;48.510;-2.770;2023-01-15T11:32:30;8.30;88.40
73572;DHT22;61854;48.510;-2.770;2023-01-15T11:34:57;8.30;88.40
73572;DHT22;61854;48.510;-2.770;2023-01-15T11:37:23;8.40;88.70
73572;DHT22;61854;48.510;-2.770;2023-01-15T11:39:52;8.40;88.10
73572;DHT22;61854;48.510;-2.770;2023-01-15T11:42:17;8.40;89.10
73572;DHT22;61854;48.510;-2.770;2023-01-15T11:45:01;8.40;88.30
73572;DHT22;61854;48.510;-2.770;2023-01-15T11:47:52;8.50;87.20
73572;DHT22;61854;48.510;-2.770;2023-01-15T11:50:58;8.50;87.70
73572;DHT22;61854;48.510;-2.770;2023-01-15T11:53:28;8.50;87.80
73572;DHT22;61854;48.510;-2.770;2023-01-15T11:55:58;8.50;88.00
73572;DHT22;61854;48.510;-2.770;2023-01-15T11:58:27;8.60;87.90
73572;DHT22;61854;48.510;-2.770;2023-01-15T12:00:53;8.60;87.50
73572;DHT22;61854;48.510;-2.770;2023-01-15T12:03:21;8.60;88.40
73572;DHT22;61854;48.510;-2.770;2023-01-15T12:05:53;8.60;87.50
73572;DHT22;61854;48.510;-2.770;2023-01-15T12:10:57;8.60;87.90
73572;DHT22;61854;48.510;-2.770;2023-01-15T12:13:36;8.70;86.70
73572;DHT22;61854;48.510;-2.770;2023-01-15T12:26:27;8.80;88.10
73572;DHT22;61854;48.510;-2.770;2023-01-15T12:31:24;8.90;88.20
73572;DHT22;61854;48.510;-2.770;2023-01-15T12:33:58;9.00;86.40
73572;DHT22;61854;48.510;-2.770;2023-01-15T12:36:40;9.10;88.10
73572;DHT22;61854;48.510;-2.770;2023-01-15T12:41:39;9.50;84.40
73572;DHT22;61854;48.510;-2.770;2023-01-15T12:47:13;9.80;90.90
73572;DHT22;61854;48.510;-2.770;2023-01-15T12:49:43;9.90;80.30
73572;DHT22;61854;48.510;-2.770;2023-01-15T12:52:10;9.90;80.20
73572;DHT22;61854;48.510;-2.770;2023-01-15T12:54:40;9.80;82.70
73572;DHT22;61854;48.510;-2.770;2023-01-15T12:57:14;9.50;85.90
73572;DHT22;61854;48.510;-2.770;2023-01-15T12:59:43;9.10;89.60
73572;DHT22;61854;48.510;-2.770;2023-01-15T13:02:25;8.70;91.00
73572;DHT22;61854;48.510;-2.770;2023-01-15T13:05:06;8.30;92.70
73572;DHT22;61854;48.510;-2.770;2023-01-15T13:07:36;8.00;93.90
73572;DHT22;61854;48.510;-2.770;2023-01-15T13:12:32;7.70;95.50
73572;DHT22;61854;48.510;-2.770;2023-01-15T13:14:57;7.80;95.10
73572;DHT22;61854;48.510;-2.770;2023-01-15T13:20:04;7.70;95.70
73572;DHT22;61854;48.510;-2.770;2023-01-15T13:22:35;7.60;95.20
73572;DHT22;61854;48.510;-2.770;2023-01-15T13:25:06;7.60;95.20
73572;DHT22;61854;48.510;-2.770;2023-01-15T13:32:43;7.60;94.20
73572;DHT22;61854;48.510;-2.770;2023-01-15T13:37:57;7.80;92.40
73572;DHT22;61854;48.510;-2.770;2023-01-15T13:40:26;7.80;91.80
73572;DHT22;61854;48.510;-2.770;2023-01-15T13:42:53;7.80;92.90
73572;DHT22;61854;48.510;-2.770;2023-01-15T13:45:23;7.80;93.80
73572;DHT22;61854;48.510;-2.770;2023-01-15T13:47:53;7.80;93.90
73572;DHT22;61854;48.510;-2.770;2023-01-15T13:50:28;7.80;93.90
73572;DHT22;61854;48.510;-2.770;2023-01-15T13:53:00;7.70;93.40
73572;DHT22;61854;48.510;-2.770;2023-01-15T13:55:31;7.70;94.10
73572;DHT22;61854;48.510;-2.770;2023-01-15T13:57:57;7.70;94.60
73572;DHT22;61854;48.510;-2.770;2023-01-15T14:00:32;7.60;94.20
73572;DHT22;61854;48.510;-2.770;2023-01-15T14:02:59;7.50;93.80
73572;DHT22;61854;48.510;-2.770;2023-01-15T14:05:29;7.40;94.80
73572;DHT22;61854;48.510;-2.770;2023-01-15T14:07:55;7.20;95.30
73572;DHT22;61854;48.510;-2.770;2023-01-15T14:18:16;6.90;98.20
73572;DHT22;61854;48.510;-2.770;2023-01-15T14:20:48;6.90;98.20
73572;DHT22;61854;48.510;-2.770;2023-01-15T14:33:31;6.60;98.80
73572;DHT22;61854;48.510;-2.770;2023-01-15T14:36:06;6.60;98.10
73572;DHT22;61854;48.510;-2.770;2023-01-15T14:38:33;6.70;97.80
73572;DHT22;61854;48.510;-2.770;2023-01-15T14:40:59;6.70;96.80
73572;DHT22;61854;48.510;-2.770;2023-01-15T14:43:30;6.80;96.50
73572;DHT22;61854;48.510;-2.770;2023-01-15T14:46:06;6.80;95.80
73572;DHT22;61854;48.510;-2.770;2023-01-15T14:48:37;6.80;95.00
73572;DHT22;61854;48.510;-2.770;2023-01-15T14:51:07;6.80;95.70
73572;DHT22;61854;48.510;-2.770;2023-01-15T14:53:37;6.80;96.50
73572;DHT22;61854;48.510;-2.770;2023-01-15T15:04:06;8.30;96.10
73572;DHT22;61854;48.510;-2.770;2023-01-15T15:09:27;8.40;93.10
73572;DHT22;61854;48.510;-2.770;2023-01-15T15:11:54;7.90;94.30
73572;DHT22;61854;48.510;-2.770;2023-01-15T15:14:40;7.50;95.40
73572;DHT22;61854;48.510;-2.770;2023-01-15T15:17:12;7.30;96.00
73572;DHT22;61854;48.510;-2.770;2023-01-15T15:19:43;7.10;96.30
73572;DHT22;61854;48.510;-2.770;2023-01-15T15:22:12;7.00;96.90
73572;DHT22;61854;48.510;-2.770;2023-01-15T15:24:43;7.00;97.40
73572;DHT22;61854;48.510;-2.770;2023-01-15T15:27:20;7.00;97.80
73572;DHT22;61854;48.510;-2.770;2023-01-15T15:29:45;7.00;97.90
73572;DHT22;61854;48.510;-2.770;2023-01-15T15:32:15;7.10;98.10
73572;DHT22;61854;48.510;-2.770;2023-01-15T15:34:43;7.10;98.10
73572;DHT22;61854;48.510;-2.770;2023-01-15T15:37:15;7.20;98.10
73572;DHT22;61854;48.510;-2.770;2023-01-15T15:45:26;7.10;97.70
73572;DHT22;61854;48.510;-2.770;2023-01-15T15:48:30;7.00;98.10
73572;DHT22;61854;48.510;-2.770;2023-01-15T15:56:29;7.00;98.40
73572;DHT22;61854;48.510;-2.770;2023-01-15T15:58:56;6.90;98.60
73572;DHT22;61854;48.510;-2.770;2023-01-15T16:01:23;7.00;98.50
73572;DHT22;61854;48.510;-2.770;2023-01-15T16:03:49;7.00;98.40
73572;DHT22;61854;48.510;-2.770;2023-01-15T16:06:21;7.00;97.80
73572;DHT22;61854;48.510;-2.770;2023-01-15T16:08:52;7.10;97.50
73572;DHT22;61854;48.510;-2.770;2023-01-15T16:11:18;7.10;97.10
73572;DHT22;61854;48.510;-2.770;2023-01-15T16:13:44;7.10;96.50
73572;DHT22;61854;48.510;-2.770;2023-01-15T16:16:12;7.10;96.60
73572;DHT22;61854;48.510;-2.770;2023-01-15T16:18:39;7.10;96.40
73572;DHT22;61854;48.510;-2.770;2023-01-15T16:21:08;7.10;96.30
73572;DHT22;61854;48.510;-2.770;2023-01-15T16:23:34;7.10;96.40
73572;DHT22;61854;48.510;-2.770;2023-01-15T16:26:05;7.10;95.70
73572;DHT22;61854;48.510;-2.770;2023-01-15T16:28:37;7.10;96.00
73572;DHT22;61854;48.510;-2.770;2023-01-15T16:31:05;7.10;96.10
73572;DHT22;61854;48.510;-2.770;2023-01-15T16:33:31;7.00;96.40
73572;DHT22;61854;48.510;-2.770;2023-01-15T16:36:00;7.00;96.30
73572;DHT22;61854;48.510;-2.770;2023-01-15T16:38:32;7.00;96.30
73572;DHT22;61854;48.510;-2.770;2023-01-15T16:40:58;7.00;95.90
73572;DHT22;61854;48.510;-2.770;2023-01-15T16:43:25;7.00;96.60
73572;DHT22;61854;48.510;-2.770;2023-01-15T16:50:47;6.90;96.00
73572;DHT22;61854;48.510;-2.770;2023-01-15T16:53:30;6.80;96.20
73572;DHT22;61854;48.510;-2.770;2023-01-15T16:55:56;6.80;96.30
73572;DHT22;61854;48.510;-2.770;2023-01-15T16:58:40;6.80;96.30
73572;DHT22;61854;48.510;-2.770;2023-01-15T17:04:15;6.80;96.40
73572;DHT22;61854;48.510;-2.770;2023-01-15T17:06:42;6.70;96.60
73572;DHT22;61854;48.510;-2.770;2023-01-15T17:09:10;6.70;96.40
73572;DHT22;61854;48.510;-2.770;2023-01-15T17:11:37;6.70;96.40
73572;DHT22;61854;48.510;-2.770;2023-01-15T17:16:37;6.60;96.50
73572;DHT22;61854;48.510;-2.770;2023-01-15T17:19:03;6.60;97.00
73572;DHT22;61854;48.510;-2.770;2023-01-15T17:21:29;6.60;96.90
73572;DHT22;61854;48.510;-2.770;2023-01-15T17:23:55;6.60;96.90
73572;DHT22;61854;48.510;-2.770;2023-01-15T17:26:21;6.60;97.10
73572;DHT22;61854;48.510;-2.770;2023-01-15T17:28:48;6.70;97.10
73572;DHT22;61854;48.510;-2.770;2023-01-15T17:33:42;6.60;97.10
73572;DHT22;61854;48.510;-2.770;2023-01-15T17:36:08;6.60;97.20
73572;DHT22;61854;48.510;-2.770;2023-01-15T17:38:33;6.60;97.20
73572;DHT22;61854;48.510;-2.770;2023-01-15T17:40:59;6.60;97.30
73572;DHT22;61854;48.510;-2.770;2023-01-15T17:43:25;6.60;97.40
73572;DHT22;61854;48.510;-2.770;2023-01-15T17:45:50;6.60;97.50
73572;DHT22;61854;48.510;-2.770;2023-01-15T17:48:16;6.60;97.50
73572;DHT22;61854;48.510;-2.770;2023-01-15T17:50:42;6.60;97.50
73572;DHT22;61854;48.510;-2.770;2023-01-15T17:53:08;6.60;97.20